Hoytville, Ohio
Current Conditions -  °F | °C
As of 3:53 PM on Monday 24 Nov 2014 (Local Time) from KFDY Reporting Station
Overcast Overcast  
Wind Chill: 32°   Ceiling: 2600
Heat Index: 42°   Visibility: 10mi
Dew Point: 33°   Wind: 28mph
Humidity: 70%   Direction: 220°SW
Pressure: 29.56"   Gusts: 40mph
Location:  41.19°N, 83.78°W
Report Text: KFDY 242053Z AUTO 22024G35KT 10SM OVC026 06/01 A2956 RMK AO2 PK WND 24042/1954 SLP007 T00560006 51068
Loading
Personal Weather Stations






























Interactive Weather Map New forecast layout! Learn more

10-Day Weather Forecast

Advertisements
Track Severe Weather on mobile